Saturday, May 28, 2016, 1:45 AM EDT

KMDT, Harrisburg International Airport

Location: Middletown, PA, United States Lat: 40.2
Local Time: 1:45 AM EDT ( 5:45 GMT) Lon: -76.767
Time Zone: US/Eastern Elev: 308 ft

Show me the last for .
Show Decoded

2016-05-28 00:56 METAR KMDT 280456Z 00000KT 10SM SCT250 22/19 A3007 RMK AO2 SLP180 T02170189
                 403220200 =
2016-05-27 23:56 METAR KMDT 280356Z 00000KT 10SM SCT250 23/19 A3007 =
2016-05-27 22:56 METAR KMDT 280256Z VRB03KT 10SM FEW120 SCT250 23/19 A3007 =
2016-05-27 21:56 METAR KMDT 280156Z 29004KT 10SM SCT130 BKN250 23/20 A3005 RMK AO2 SLP173
                 T02280200 =
2016-05-27 20:56 METAR KMDT 280056Z 00000KT 10SM BKN180 BKN250 25/19 A3004 RMK AO2 RAE2357 SLP170
                 P0000 T02500194 =
2016-05-27 19:56 METAR KMDT 272356Z 24006KT 10SM -RA SCT070 BKN110 BKN200 25/21 A3001 RMK AO2
                 RAB39 SLP159 P0000 60000 T02500206 10322 20250 53001 =
2016-05-27 18:56 METAR KMDT 272256Z 22005KT 10SM FEW055 SCT085 BKN180 BKN250 28/19 A3000 =
2016-05-27 17:56 METAR KMDT 272156Z 00000KT 10SM FEW055 SCT180 BKN250 32/19 A2999 RMK AO2 SLP155
                 TCU DSNT W T03170194 =
2016-05-27 16:56 METAR KMDT 272056Z VRB03KT 10SM FEW055 BKN250 31/19 A3000 =
2016-05-27 15:56 METAR KMDT 271956Z 18007KT 10SM SCT055 BKN250 32/19 A3001 RMK AO2 SLP161
                 T03170189 =
2016-05-27 14:56 METAR KMDT 271856Z 21003KT 10SM SCT050 BKN250 32/20 A3002 RMK AO2 SLP165
                 T03170200 =
2016-05-27 13:56 METAR KMDT 271756Z 18003KT 10SM SCT047 BKN055 BKN250 31/19 A3003 =
2016-05-27 12:56 METAR KMDT 271656Z 14004KT 10SM SCT045 SCT050 BKN250 29/19 A3004 RMK AO2 SLP172
                 T02940194 =
2016-05-27 11:56 METAR KMDT 271556Z 33003KT 10SM SCT030 BKN250 28/18 A3005 RMK AO2 SLP173
                 T02830183 =
2016-05-27 10:56 METAR KMDT 271456Z 28004KT 10SM SCT030 BKN250 28/19 A3006 RMK AO2 SLP176
                 T02780189 50000 =
2016-05-27 09:56 METAR KMDT 271356Z 33006KT 9SM SCT250 26/19 A3006 =
2016-05-27 08:56 METAR KMDT 271256Z 29004KT 6SM HZ SCT250 24/19 A3006 =
2016-05-27 07:56 METAR KMDT 271156Z 00000KT 4SM HZ CLR 23/19 A3006 =
2016-05-27 06:56 METAR KMDT 271056Z 00000KT 5SM BR SCT100 21/19 A3006 =
2016-05-27 05:56 METAR KMDT 270956Z VRB04KT 4SM HZ OVC100 21/18 A3004 RMK AO2 SLP172 T02060178 =
2016-05-27 04:56 METAR KMDT 270856Z 00000KT 9SM FEW095 FEW120 BKN150 21/18 A3003 RMK AO2 SLP166
                 T02110183 50002 =
2016-05-27 03:56 METAR KMDT 270756Z 00000KT 9SM SCT095 BKN120 OVC150 22/18 A3003 RMK AO2 SLP167
                 T02220183 =
2016-05-27 02:56 METAR KMDT 270656Z 00000KT 9SM SCT110 BKN150 OVC250 23/18 A3003 RMK AO2 SLP166
                 T02280178 =
2016-05-27 01:56 METAR KMDT 270556Z 17003KT 9SM BKN110 OVC250 23/19 A3002 RMK AO2 SLP163
                 T02280189 10256 20211 50000 =

Support USWX by starting your Amazon purchase here.